MMMM

Details ICAO MMMM (MLM)
Name General Francisco J Mujica intl
Region Mexico
Timezone America/Mexico_City (UTC-5.0)
Plans Departing 271
Arriving 283
Stats Elevation 6,033 ft / 1,839 m (AMSL)
Location 19.849900° -101.025000°
Runways 1
Magnetic Variation 4.684° E
Sunrise 2024-07-21 12:17:03 UTC / 2024-07-21 07:17:03 Local
Sunset 2024-07-22 01:26:14 UTC / 2024-07-21 20:26:14 Local
Advertisement - Login to hide

Runways

ID Width Length Bearing (true/mag) Surface Threshold Overrun Markings Lighting
05 148 ft / 45 m 11,186 ft / 3,410 m 54.47° / 49.78° ASPHALT 0 ft / 0 m 190 ft / 58 m PREC-APP EDGE THRESHOLD ODALS
23 148 ft / 45 m 11,186 ft / 3,410 m 234.48° / 229.79° ASPHALT 0 ft / 0 m 177 ft / 54 m PREC-APP EDGE THRESHOLD SSALF

Map

Weather


0- 5 10 15 20 25 30 35+ Temperature / °C

Clouds and Precipitation
Forecast for 2024-04-15 18:00 UTC. Updated 3 months ago

Ground ~20,000 ft ~40,000 ft Winds

METAR

MMMM 212040Z 30005KT 6SM SCT025 25/15 A3017 RMK SLP065 57026 975 8/200 HZY CBS 3TH QUAD TCU E

TAF

TAF MMMM 211711Z 2118/2218 09005KT 5SM HZ BKN025 BKN100 FM212000 17010KT P6SM BKN025CB TEMPO 2121/2201 3SM TSRA FM220200 18005KT 5SM RA BKN020 BKN100 TEMPO 2203/2207 4SM TSRA BKN020CB FM220800 00000KT 4SM -RA BR BKN015 TEMPO 2212/2216 1SM BR -RA OVC008

Frequencies

Approach 118.50 MHz Morelia Approach
Recorded 122.30 MHz Morelia ATIS
Tower 118.50 MHz Morelia Tower
Warning: Do not use this data for real-world aviation or navigation. No guarantee of current accuracy is given.